createdAt,value
2023-04-08T00:05:50.271Z,8.7
2023-04-08T00:11:50.258Z,8.6
2023-04-08T00:17:50.286Z,8.6
2023-04-08T00:23:50.261Z,8.7
2023-04-08T00:29:50.268Z,8.6
2023-04-08T00:35:50.353Z,8.6
2023-04-08T00:41:50.268Z,8.6
2023-04-08T00:47:50.319Z,8.5
2023-04-08T00:53:50.283Z,8.5
2023-04-08T00:59:50.277Z,8.6
2023-04-08T01:05:50.263Z,8.4
2023-04-08T01:11:50.308Z,8.6
2023-04-08T01:17:50.286Z,8.6
2023-04-08T01:23:50.297Z,8.6
2023-04-08T01:29:50.298Z,8.6
2023-04-08T01:35:50.348Z,8.6
2023-04-08T01:41:50.276Z,8.6
2023-04-08T01:47:50.316Z,8.7
2023-04-08T01:53:50.282Z,8.6
2023-04-08T01:59:50.264Z,8.6
2023-04-08T02:05:50.277Z,8.5
2023-04-08T02:11:50.283Z,8.5
2023-04-08T02:17:50.307Z,8.6
2023-04-08T02:23:50.298Z,8.5
2023-04-08T02:29:50.284Z,8.5
2023-04-08T02:35:50.308Z,8.5
2023-04-08T02:41:50.265Z,8.5
2023-04-08T02:47:50.305Z,8.4
2023-04-08T02:53:50.269Z,8.4
2023-04-08T02:59:50.256Z,8.4
2023-04-08T03:05:50.259Z,8.3
2023-04-08T03:11:50.276Z,8.4
2023-04-08T03:17:50.307Z,8.5
2023-04-08T03:23:50.293Z,8.4
2023-04-08T03:29:50.281Z,8.5
2023-04-08T03:35:50.310Z,8.3
2023-04-08T03:41:50.261Z,8.3
2023-04-08T03:47:50.363Z,8.3
2023-04-08T03:53:50.259Z,8.4
2023-04-08T03:59:50.279Z,8.4
2023-04-08T04:05:50.257Z,8.5
2023-04-08T04:11:50.273Z,8.4
2023-04-08T04:17:50.335Z,8.4
2023-04-08T04:23:50.248Z,8.4
2023-04-08T04:29:50.269Z,8.5
2023-04-08T04:35:50.289Z,8.4
2023-04-08T04:41:50.272Z,8.4
2023-04-08T04:47:50.300Z,8.5
2023-04-08T04:53:50.267Z,8.5
2023-04-08T04:59:50.262Z,8.5
2023-04-08T05:05:50.261Z,8.5
2023-04-08T05:11:50.264Z,8.6
2023-04-08T05:17:50.292Z,8.5
2023-04-08T05:23:50.270Z,8.5
2023-04-08T05:29:50.274Z,8.5
2023-04-08T05:35:50.312Z,8.5
2023-04-08T05:41:50.295Z,8.4
2023-04-08T05:47:50.304Z,8.4
2023-04-08T05:53:50.260Z,8.4
2023-04-08T05:59:50.272Z,8.4
2023-04-08T06:05:50.266Z,8.4
2023-04-08T06:11:50.252Z,8.2
2023-04-08T06:17:50.287Z,8.2
2023-04-08T06:23:50.295Z,8.2
2023-04-08T06:29:50.261Z,8.4
2023-04-08T06:35:50.290Z,8.8
2023-04-08T06:41:50.280Z,9
2023-04-08T06:47:50.277Z,9
2023-04-08T06:53:50.259Z,9
2023-04-08T06:59:50.292Z,8.8
2023-04-08T07:05:50.280Z,8.8
2023-04-08T07:11:50.274Z,8.9
2023-04-08T07:17:50.326Z,8.8
2023-04-08T07:23:50.277Z,8.6
2023-04-08T07:29:50.293Z,8.7
2023-04-08T07:35:50.342Z,8.6
2023-04-08T07:41:50.442Z,8.6
2023-04-08T07:47:50.297Z,8.5
2023-04-08T07:53:50.262Z,8.7
2023-04-08T07:59:50.248Z,8.5
2023-04-08T08:05:50.289Z,8.5
2023-04-08T08:17:50.266Z,8.6
2023-04-08T08:23:50.500Z,8.8
2023-04-08T08:29:50.280Z,8.9
2023-04-08T08:35:50.280Z,9
2023-04-08T08:41:50.268Z,9.2
2023-04-08T08:47:51.237Z,9.3
2023-04-08T08:53:50.369Z,9.5
2023-04-08T08:59:50.259Z,9.3
2023-04-08T09:05:50.278Z,9.2
2023-04-08T09:11:50.267Z,9.2
2023-04-08T09:17:50.288Z,8.9
2023-04-08T09:23:50.515Z,9
2023-04-08T09:29:50.263Z,9
2023-04-08T09:35:50.288Z,8.9
2023-04-08T09:41:50.278Z,9.2
2023-04-08T09:47:50.262Z,9.6
2023-04-08T09:53:50.497Z,9.6
2023-04-08T09:59:50.276Z,9.7
2023-04-08T10:05:50.253Z,9.8
2023-04-08T10:11:50.272Z,10
2023-04-08T10:17:50.305Z,9.6
2023-04-08T10:23:50.466Z,9.6
2023-04-08T10:29:50.295Z,9.8
2023-04-08T10:35:50.284Z,9.7
2023-04-08T10:41:50.284Z,9.8
2023-04-08T10:47:50.289Z,10
2023-04-08T10:53:50.468Z,10.3
2023-04-08T10:59:50.268Z,10.5
2023-04-08T11:05:50.247Z,10.7
2023-04-08T11:11:50.278Z,10.7
2023-04-08T11:17:50.277Z,10.3
2023-04-08T11:23:50.693Z,10.5
2023-04-08T11:29:50.271Z,10.1
2023-04-08T11:35:50.286Z,10.3
2023-04-08T11:41:50.261Z,10.3
2023-04-08T11:47:50.303Z,10.3
2023-04-08T11:53:50.490Z,10.3
2023-04-08T11:59:50.258Z,10.5
2023-04-08T12:05:50.258Z,10.6
2023-04-08T12:11:50.283Z,10.7
2023-04-08T12:17:50.292Z,10.6
2023-04-08T12:23:50.462Z,10.3
2023-04-08T12:29:50.254Z,10.6
2023-04-08T12:35:50.285Z,8.1
2023-04-08T12:41:50.265Z,7.5
2023-04-08T12:47:50.307Z,7.3
2023-04-08T12:53:50.277Z,7.7
2023-04-08T12:59:50.283Z,7.3
2023-04-08T13:05:50.295Z,8
2023-04-08T13:11:50.322Z,7.7
2023-04-08T13:17:50.286Z,7.1
2023-04-08T13:23:50.269Z,7.6
2023-04-08T13:29:50.271Z,7.9
2023-04-08T13:35:50.289Z,7.8
2023-04-08T13:41:50.262Z,7.9
2023-04-08T13:47:50.303Z,8.3
2023-04-08T13:53:50.350Z,8.2
2023-04-08T13:59:50.306Z,8.7
2023-04-08T14:05:50.262Z,8.5
2023-04-08T14:11:50.267Z,8.5
2023-04-08T14:17:50.314Z,8.5
2023-04-08T14:23:50.273Z,8.6
2023-04-08T14:29:50.286Z,8.4
2023-04-08T14:35:50.297Z,8.4
2023-04-08T14:41:50.283Z,8.9
2023-04-08T14:47:50.353Z,8.9
2023-04-08T14:53:50.455Z,9.1
2023-04-08T14:59:50.264Z,9.2
2023-04-08T15:05:50.254Z,9.2
2023-04-08T15:11:50.269Z,8.4
2023-04-08T15:17:52.103Z,9
2023-04-08T15:23:50.262Z,8.4
2023-04-08T15:29:50.263Z,8.8
2023-04-08T15:41:50.271Z,9.1
2023-04-08T15:47:50.337Z,8.9
2023-04-08T15:53:50.287Z,9.4
2023-04-08T15:59:50.267Z,9.5
2023-04-08T16:05:50.271Z,9.5
2023-04-08T16:11:51.310Z,9.4
2023-04-08T16:17:50.303Z,9.4
2023-04-08T16:23:50.589Z,9.7
2023-04-08T16:29:50.278Z,9.8
2023-04-08T16:35:50.292Z,9.8
2023-04-08T16:41:50.266Z,9.7
2023-04-08T16:47:50.665Z,9.9
2023-04-08T16:53:50.552Z,9.6
2023-04-08T16:59:50.276Z,9.9
2023-04-08T17:05:50.271Z,10.2
2023-04-08T17:11:50.281Z,10.6
2023-04-08T17:17:50.321Z,10.6
2023-04-08T17:23:50.528Z,10.4
2023-04-08T17:29:50.278Z,10.2
2023-04-08T17:35:50.305Z,10.1
2023-04-08T17:41:50.321Z,10.1
2023-04-08T17:47:50.323Z,9.9
2023-04-08T17:53:50.526Z,9.9
2023-04-08T17:59:50.458Z,10
2023-04-08T18:05:50.305Z,10
2023-04-08T18:11:50.276Z,10.1
2023-04-08T18:17:50.316Z,9.8
2023-04-08T18:23:50.629Z,9.7
2023-04-08T18:29:50.277Z,9.6
2023-04-08T18:35:50.340Z,9.5
2023-04-08T18:41:50.273Z,9.3
2023-04-08T18:47:50.298Z,9.3
2023-04-08T18:53:50.441Z,9.2
2023-04-08T18:59:50.263Z,9.1
2023-04-08T19:05:50.265Z,9.2
2023-04-08T19:11:50.272Z,9.2
2023-04-08T19:17:50.314Z,9.1
2023-04-08T19:23:50.598Z,9
2023-04-08T19:29:50.275Z,9
2023-04-08T19:35:50.418Z,9
2023-04-08T19:41:50.275Z,9
2023-04-08T19:47:50.362Z,8.9
2023-04-08T19:53:50.593Z,8.9
2023-04-08T19:59:50.262Z,8.8
2023-04-08T20:05:50.262Z,8.8
2023-04-08T20:11:50.256Z,8.7
2023-04-08T20:17:50.309Z,8.5
2023-04-08T20:23:50.280Z,8.5
2023-04-08T20:29:50.296Z,8.5
2023-04-08T20:36:00.584Z,8.5
2023-04-08T20:41:50.328Z,8.5
2023-04-08T20:47:50.307Z,8.4
2023-04-08T20:53:50.296Z,8.4
2023-04-08T20:59:50.291Z,8.4
2023-04-08T21:05:50.299Z,8.4
2023-04-08T21:11:50.275Z,8.3
2023-04-08T21:17:50.314Z,8.4
2023-04-08T21:23:50.264Z,8.3
2023-04-08T21:29:50.285Z,8.3
2023-04-08T21:35:50.399Z,8.4
2023-04-08T21:41:50.370Z,8.3
2023-04-08T21:47:50.369Z,8.3
2023-04-08T21:54:00.566Z,8.2
2023-04-08T21:59:50.262Z,8.2
2023-04-08T22:05:50.265Z,8.2
2023-04-08T22:11:50.266Z,8.2
2023-04-08T22:17:50.361Z,8.3
2023-04-08T22:23:50.277Z,8.3
2023-04-08T22:29:50.262Z,8.2
2023-04-08T22:35:50.305Z,8.2
2023-04-08T22:41:50.267Z,8.3
2023-04-08T22:47:50.278Z,8.3
2023-04-08T22:53:50.259Z,8.3
2023-04-08T22:59:50.506Z,8.3
2023-04-08T23:11:50.274Z,8.2
2023-04-08T23:17:50.276Z,8.3
2023-04-08T23:23:50.268Z,8.3
2023-04-08T23:29:50.263Z,8.3
2023-04-08T23:35:50.330Z,8.4
2023-04-08T23:41:50.283Z,8.4
2023-04-08T23:47:50.307Z,8.4
2023-04-08T23:53:50.267Z,8.4
2023-04-08T23:59:50.280Z,8.4
